Latest Weather Observations for Cape Leeuwin

IDW60801

Issued at 2:33 pm WST Tuesday 31 March 2015 (issued every 30 minutes, with the page automatically refreshed every 10 minutes)

About weather observations | Map of weather stations | Latest weather observations for WA | Other Formats
Station Details ID: 009518 Name: CAPE LEEUWIN Lat: -34.37 Lon: 115.14 Height: 13.0 m
Data from the previous 72 hours. | See also: Recent months at Cape Leeuwin
Date/Time
WST
Temp
°C
App
Temp
°C
Dew
Point
Rel
Hum
%
Delta-T
°C
Wind Press
QNH
hPa
Press
MSL
hPa
Rain
since 9 am
mm
Dir
 
Spd
km/h
Gust
km/h
Spd
kts
Gust
kts
31/02:30pm 19.2 14.9 13.2 68 3.4 S 28 37 15 20 1019.2 1019.2 2.2
31/02:00pm 19.4 15.9 14.4 73 2.9 S 26 37 14 20 1019.0 1019.0 2.2
31/01:30pm 19.2 15.2 15.1 77 2.4 S 30 39 16 21 1018.8 1018.8 2.2
31/01:00pm 19.1 15.5 16.2 83 1.7 S 30 43 16 23 1018.7 1018.7 2.2
31/12:30pm 18.8 15.2 17.1 90 1.0 S 32 39 17 21 1018.5 1018.4 2.2
31/12:00pm 18.8 15.4 17.8 94 0.6 S 32 43 17 23 1018.3 1018.2 2.2
31/11:30am 19.7 16.5 18.1 90 1.0 SW 32 35 17 19 1018.2 1018.1 1.4
31/11:00am 19.1 16.0 17.6 91 0.9 SSW 30 37 16 20 1018.1 1018.0 1.4
31/10:30am 22.3 20.5 16.0 67 3.8 WSW 20 24 11 13 1018.0 1017.9 0.0
31/10:00am 22.0 19.0 14.9 64 4.2 WSW 24 26 13 14 1017.8 1017.7 0.0
31/09:30am 21.4 18.6 15.3 68 3.6 WSW 24 28 13 15 1017.8 1017.7 0.0
31/09:00am 20.8 18.6 15.9 73 2.9 WSW 22 32 12 17 1017.6 1017.5 0.4
31/08:30am 21.3 19.8 14.3 64 4.1 WSW 15 17 8 9 1017.5 1017.4 0.4
31/08:00am 20.5 18.3 14.3 67 3.6 WSW 19 24 10 13 1017.3 1017.2 0.4
31/07:30am 19.9 17.7 14.8 72 3.0 WSW 20 24 11 13 1017.0 1016.9 0.4
31/07:00am 19.6 16.5 14.4 72 3.0 WSW 24 30 13 16 1016.9 1016.8 0.4
31/06:30am 19.8 17.2 15.0 74 2.8 SW 22 28 12 15 1016.8 1016.7 0.4
31/06:00am 19.5 17.3 14.9 75 2.7 WSW 20 26 11 14 1016.6 1016.5 0.4
31/05:30am 19.4 17.7 15.7 79 2.2 SW 19 24 10 13 1016.3 1016.2 0.4
31/05:00am 19.0 17.8 16.0 83 1.8 SW 17 20 9 11 1016.1 1016.0 0.4
31/04:30am 18.3 18.7 16.3 88 1.2 SW 9 11 5 6 1015.9 1015.8 0.4
31/04:00am 18.5 19.4 16.7 89 1.1 SW 7 9 4 5 1015.9 1015.8 0.4
31/03:30am 18.7 18.6 16.9 89 1.1 WSW 13 17 7 9 1015.9 1015.8 0.4
31/03:00am 18.1 16.2 16.8 92 0.8 SW 22 28 12 15 1015.9 1015.8 0.4
31/02:30am 18.5 17.1 17.0 91 0.9 WNW 20 28 11 15 1016.3 1016.2 0.0
31/02:00am 19.8 19.7 16.1 79 2.2 NNW 11 13 6 7 1016.3 1016.2 0.0
31/01:30am 19.4 20.0 15.7 79 2.2 N 7 11 4 6 1016.6 1016.5 0.0
31/01:00am 20.1 20.5 15.4 74 2.8 NW 7 11 4 6 1016.7 1016.6 0.0
31/12:30am 19.8 19.9 15.4 76 2.6 W 9 11 5 6 1016.4 1016.3 0.0
31/12:00am 20.2 18.9 14.9 71 3.1 W 15 19 8 10 1016.6 1016.5 0.0
 
Date/Time
WST
Temp
°C
App
Temp
°C
Dew
Point
Rel
Hum
%
Delta-T
°C
Wind Press
QNH
hPa
Press
MSL
hPa
Rain
since 9 am
mm
Dir
 
Spd
km/h
Gust
km/h
Spd
kts
Gust
kts
30/11:30pm 20.0 18.2 15.6 76 2.6 WSW 19 22 10 12 1016.6 1016.5 0.0
30/11:00pm 19.4 19.3 15.9 80 2.1 WSW 11 15 6 8 1016.8 1016.7 0.0
30/10:30pm 20.0 18.3 15.8 77 2.5 WSW 19 24 10 13 1017.0 1016.9 0.0
30/10:00pm 20.1 18.4 15.7 76 2.6 WSW 19 20 10 11 1017.0 1016.9 0.0
30/09:30pm 20.1 19.9 15.7 76 2.6 SW 11 13 6 7 1017.0 1016.9 0.0
30/09:00pm 20.2 19.4 15.1 72 3.0 WSW 13 19 7 10 1017.2 1017.1 0.0
30/08:30pm 20.4 19.0 14.4 68 3.5 WSW 15 19 8 10 1017.3 1017.2 0.0
30/08:00pm 20.2 17.5 14.5 69 3.3 SW 22 28 12 15 1017.0 1016.9 0.0
30/07:30pm 20.6 19.5 15.4 72 3.1 WSW 15 19 8 10 1016.9 1016.8 0.0
30/07:00pm 20.1 19.9 14.6 70 3.2 WSW 9 13 5 7 1016.7 1016.6 0.0
30/06:30pm 20.2 19.5 14.3 69 3.4 WSW 11 13 6 7 1016.9 1016.8 0.0
30/06:00pm 20.5 19.4 14.3 67 3.6 W 13 17 7 9 1016.8 1016.7 0.0
30/05:30pm 20.5 18.9 13.9 66 3.8 WSW 15 20 8 11 1016.3 1016.2 0.0
30/05:00pm 20.8 18.3 14.1 65 3.9 WSW 20 26 11 14 1016.0 1015.9 0.0
30/04:30pm 21.4 19.5 15.1 67 3.7 WSW 19 22 10 12 1015.8 1015.7 0.0
30/04:00pm 21.1 18.2 14.0 64 4.1 WSW 22 28 12 15 1015.8 1015.7 0.0
30/03:30pm 21.9 18.8 14.4 62 4.4 W 24 28 13 15 1015.8 1015.7 0.0
30/03:00pm 22.2 19.8 14.3 61 4.6 W 20 26 11 14 1015.8 1015.7 0.0
30/02:30pm 22.1 19.3 14.4 61 4.5 W 22 26 12 14 1015.7 1015.6 0.0
30/02:00pm 22.4 20.2 15.0 63 4.4 WSW 20 26 11 14 1015.5 1015.4 0.0
30/01:30pm 22.0 19.8 14.9 64 4.2 WSW 20 24 11 13 1015.7 1015.6 0.0
30/01:00pm 22.1 20.9 15.0 64 4.2 WSW 15 19 8 10 1016.1 1016.0 0.0
30/12:30pm 22.4 21.2 15.0 63 4.4 W 15 19 8 10 1016.3 1016.2 0.0
30/12:00pm 22.8 21.9 14.9 61 4.7 WSW 13 17 7 9 1016.3 1016.2 0.0
30/11:30am 22.4 21.6 15.0 63 4.4 W 13 15 7 8 1016.6 1016.5 0.0
30/11:00am 22.0 21.5 14.9 64 4.2 WSW 11 15 6 8 1016.6 1016.5 0.0
30/10:30am 21.5 21.9 15.3 68 3.7 WSW 7 11 4 6 1016.9 1016.8 0.0
30/10:00am 21.2 21.3 15.5 70 3.4 SSW 9 11 5 6 1016.9 1016.8 0.0
30/09:30am 21.4 21.6 15.7 70 3.4 SW 9 13 5 7 1016.9 1016.8 0.0
30/09:00am 20.8 21.1 16.1 74 2.8 SSW 9 13 5 7 1017.2 1017.1 0.0
30/08:30am 20.6 20.4 15.7 73 2.9 SSW 11 17 6 9 1017.0 1016.9 0.0
30/08:00am 19.7 19.2 16.0 79 2.2 SW 13 17 7 9 1017.0 1016.9 0.0
30/07:30am 19.3 19.2 16.1 82 1.9 SSW 11 13 6 7 1016.9 1016.8 0.0
30/07:00am 18.9 18.8 15.9 83 1.8 S 11 15 6 8 1016.8 1016.7 0.0
30/06:30am 18.7 18.7 16.2 85 1.5 S 11 15 6 8 1016.8 1016.7 0.0
30/06:00am 18.5 18.9 16.3 87 1.3 SSE 9 13 5 7 1016.8 1016.7 0.0
30/05:30am 18.8 19.4 16.8 88 1.2 ESE 9 13 5 7 1016.7 1016.6 0.0
30/05:00am 19.0 18.8 16.8 87 1.3 E 13 15 7 8 1016.5 1016.4 0.0
30/04:30am 18.8 18.4 16.1 84 1.6 SE 13 19 7 10 1016.3 1016.2 0.0
30/04:00am 18.8 17.5 15.8 83 1.8 ESE 17 22 9 12 1016.1 1016.0 0.0
30/03:30am 18.9 17.3 15.9 83 1.8 ESE 19 24 10 13 1016.5 1016.4 0.0
30/03:00am 19.0 17.4 16.0 83 1.8 ESE 19 22 10 12 1016.6 1016.5 0.0
30/02:30am 18.9 17.1 16.0 83 1.7 ESE 20 24 11 13 1016.8 1016.7 0.0
30/02:00am 19.0 17.2 16.1 83 1.7 ESE 20 24 11 13 1017.2 1017.1 0.0
30/01:30am 19.1 17.2 15.7 80 2.0 ESE 20 24 11 13 1017.6 1017.5 0.0
30/01:00am 19.1 16.0 15.5 79 2.1 ESE 26 32 14 17 1017.7 1017.6 0.0
30/12:30am 19.0 15.7 16.1 83 1.7 ESE 28 32 15 17 1017.9 1017.8 0.0
30/12:00am 19.3 16.9 16.5 84 1.7 ESE 24 30 13 16 1018.1 1018.0 0.0
 
Date/Time
WST
Temp
°C
App
Temp
°C
Dew
Point
Rel
Hum
%
Delta-T
°C
Wind Press
QNH
hPa
Press
MSL
hPa
Rain
since 9 am
mm
Dir
 
Spd
km/h
Gust
km/h
Spd
kts
Gust
kts
29/11:30pm 19.4 16.8 16.0 81 2.0 ESE 24 30 13 16 1018.2 1018.1 0.0
29/11:00pm 19.4 16.4 15.9 80 2.1 ESE 26 32 14 17 1018.5 1018.4 0.0
29/10:30pm 19.5 16.8 15.6 78 2.3 ESE 24 30 13 16 1018.9 1018.9 0.0
29/10:00pm 19.5 17.1 15.4 77 2.4 ESE 22 26 12 14 1019.1 1019.1 0.0
29/09:30pm 19.5 17.5 14.9 75 2.7 SE 19 24 10 13 1019.2 1019.2 0.0
29/09:00pm 19.5 17.4 14.7 74 2.8 SE 19 24 10 13 1019.3 1019.3 0.0
29/08:30pm 19.4 17.7 14.8 75 2.7 SE 17 20 9 11 1019.4 1019.4 0.0
29/08:00pm 19.3 17.6 14.8 75 2.6 SE 17 19 9 10 1019.5 1019.5 0.0
29/07:30pm 19.4 17.8 14.9 75 2.6 SSE 17 20 9 11 1019.3 1019.3 0.0
29/07:00pm 19.4 18.5 14.9 75 2.6 SE 13 17 7 9 1019.1 1019.1 0.0
29/06:30pm 19.6 18.7 14.8 74 2.8 SE 13 15 7 8 1018.8 1018.8 0.0
29/06:00pm 20.1 19.2 14.8 71 3.1 SSE 13 17 7 9 1018.7 1018.7 0.0
29/05:30pm 20.8 20.0 15.0 69 3.4 SSE 13 15 7 8 1018.7 1018.7 0.0
29/05:00pm 21.5 20.8 15.3 68 3.7 SSE 13 15 7 8 1018.6 1018.5 0.0
29/04:30pm 21.9 21.1 15.1 65 4.0 SSE 13 17 7 9 1018.6 1018.5 0.0
29/04:00pm 22.2 21.1 15.3 65 4.1 SSE 15 19 8 10 1018.7 1018.7 0.0
29/03:30pm 22.4 21.3 15.3 64 4.2 SSE 15 20 8 11 1018.6 1018.5 0.0
29/03:00pm 22.6 21.3 15.8 65 4.1 S 17 22 9 12 1018.8 1018.8 0.0
29/02:30pm 22.6 21.2 15.6 64 4.2 S 17 22 9 12 1019.0 1019.0 0.0
29/02:00pm 22.4 21.0 15.5 65 4.1 SSE 17 20 9 11 1019.2 1019.2 0.0
29/01:30pm 22.2 20.8 15.5 66 4.0 SSE 17 20 9 11 1019.5 1019.5 0.0
29/01:00pm 22.1 20.6 15.4 65 4.0 SSE 17 22 9 12 1019.9 1019.9 0.0
29/12:30pm 22.2 20.6 15.1 64 4.2 SSE 17 20 9 11 1020.2 1020.2 0.0
29/12:00pm 22.5 21.2 14.9 62 4.5 SSE 15 19 8 10 1020.5 1020.5 0.0
29/11:30am 21.9 21.0 14.9 64 4.1 ESE 13 15 7 8 1020.9 1020.9 0.0
29/11:00am 21.7 20.4 14.9 65 4.0 ESE 15 17 8 9 1021.3 1021.3 0.0
29/10:30am 21.5 20.7 15.2 67 3.7 E 13 17 7 9 1021.6 1021.6 0.0
29/10:00am 21.0 19.8 15.1 69 3.5 E 15 19 8 10 1021.9 1021.9 0.0
29/09:30am 20.6 18.9 14.6 68 3.5 E 17 22 9 12 1022.0 1022.0 0.0
29/09:00am 20.8 19.1 14.6 67 3.6 ENE 17 20 9 11 1022.1 1022.1 0.0
29/08:30am 19.9 18.2 14.6 71 3.1 NE 17 24 9 13 1022.0 1022.0 0.0
29/08:00am 18.8 17.1 14.8 77 2.3 NE 17 24 9 13 1021.8 1021.8 0.0
29/07:30am 17.7 15.8 15.1 85 1.5 NE 19 24 10 13 1021.6 1021.6 0.0
29/07:00am 16.9 14.7 14.8 87 1.2 NNE 20 24 11 13 1021.5 1021.5 0.0
29/06:30am 16.8 14.6 14.9 88 1.1 NNE 20 24 11 13 1021.5 1021.5 0.0
29/06:00am 17.2 15.1 15.1 87 1.2 NE 20 26 11 14 1021.5 1021.5 0.0
29/05:30am 17.7 16.3 15.5 87 1.3 NE 17 22 9 12 1021.5 1021.5 0.0
29/05:00am 17.8 16.7 15.4 86 1.4 NNE 15 17 8 9 1021.2 1021.2 0.0
29/04:30am 17.9 17.6 15.5 86 1.4 NNE 11 15 6 8 1021.1 1021.1 0.0
29/04:00am 17.9 17.8 15.9 88 1.2 NE 11 15 6 8 1021.0 1021.0 0.0
29/03:30am 18.0 17.8 15.8 87 1.3 NE 11 15 6 8 1021.0 1021.0 0.0
29/03:00am 19.1 18.6 14.8 76 2.5 SE 11 15 6 8 1020.8 1020.8 0.0
29/02:30am 19.0 18.0 14.7 76 2.5 E 13 17 7 9 1020.8 1020.8 0.0
29/02:00am 19.0 19.3 14.9 77 2.4 ESE 7 13 4 7 1020.9 1020.9 0.0
29/01:30am 18.6 18.5 15.0 79 2.1 SE 9 15 5 8 1020.8 1020.8 0.0
29/01:00am 18.3 18.1 14.8 80 2.0 SE 9 13 5 7 1021.0 1021.0 0.0
29/12:30am 18.2 18.0 14.6 79 2.1 SSE 9 13 5 7 1021.1 1021.1 0.0
29/12:00am 18.5 18.0 14.9 79 2.1 S 11 15 6 8 1021.1 1021.1 0.0
 
Date/Time
WST
Temp
°C
App
Temp
°C
Dew
Point
Rel
Hum
%
Delta-T
°C
Wind Press
QNH
hPa
Press
MSL
hPa
Rain
since 9 am
mm
Dir
 
Spd
km/h
Gust
km/h
Spd
kts
Gust
kts
28/11:30pm 18.9 18.5 15.3 79 2.1 SSE 11 17 6 9 1021.3 1021.3 0.0
28/11:00pm 18.8 18.0 15.0 78 2.2 SSE 13 17 7 9 1021.5 1021.5 0.0
28/10:30pm 18.8 17.7 15.4 80 2.0 SSE 15 19 8 10 1021.5 1021.5 0.0
28/10:00pm 18.5 17.2 15.8 84 1.6 S 17 22 9 12 1021.7 1021.7 0.0
28/09:30pm 18.2 16.7 16.3 89 1.1 SSE 19 26 10 14 1021.8 1021.8 0.0
28/09:00pm 18.3 16.4 16.8 91 0.9 S 22 28 12 15 1021.9 1021.9 0.0
28/08:30pm 18.9 17.6 17.2 90 1.0 S 20 28 11 15 1021.7 1021.7 0.0
28/08:00pm 18.7 18.6 17.0 90 1.0 SSE 13 17 7 9 1021.5 1021.5 0.0
28/07:30pm 19.4 18.5 16.9 85 1.5 S 17 24 9 13 1021.1 1021.1 0.0
28/07:00pm 19.4 18.8 16.7 84 1.6 S 15 20 8 11 1020.7 1020.7 0.0
28/06:30pm 19.2 18.9 16.4 84 1.7 SSW 13 17 7 9 1020.4 1020.4 0.0
28/06:00pm 19.7 18.9 17.1 85 1.6 S 17 22 9 12 1020.2 1020.2 0.0
28/05:30pm 19.9 18.7 16.2 79 2.2 SSW 17 20 9 11 1020.2 1020.2 0.0
28/05:00pm 21.1 20.1 16.6 75 2.7 SSW 17 20 9 11 1020.3 1020.3 0.0
28/04:30pm 22.2 20.9 15.7 66 3.9 WSW 17 22 9 12 1020.1 1020.1 0.0
28/04:00pm 21.8 20.3 15.2 66 3.9 WSW 17 22 9 12 1020.2 1020.2 0.0
28/03:30pm 22.0 20.7 14.7 63 4.3 W 15 17 8 9 1020.2 1020.2 0.0
28/03:00pm 22.8 21.4 14.5 59 4.9 W 15 20 8 11 1020.3 1020.3 0.0

Other Formats:

Comma delimited format used in spreadsheet applications
http://www.bom.gov.au/fwo/IDW60801/IDW60801.94601.axf

JavaScript Object Notation format (JSON) in row-major order
http://www.bom.gov.au/fwo/IDW60801/IDW60801.94601.json